Terminal Aerodrome Forecast
Issued by NWS Mt. Holly, NJ

Home | Current Version | Previous Version | Text Only | Print | Product List | Glossary On
Versions: 1 2 3 4 5 6 7 8 9 10 11 12 13 14 15 16 17 18 19 20 21 22 23 24 25 26 27
916
FTUS41 KPHI 261921 AAA
TAFILG
TAF AMD
KILG 261921Z 2619/2718 12006KT P6SM SCT035 BKN050
     FM270000 16005KT P6SM FEW025 SCT090
     FM270500 VRB03KT P6SM SCT100 BKN250
     FM271300 19004KT P6SM BKN025=

USA.gov is the U.S. government's official web portal to all federal, state and local government web resources and services.